Detailed System and Site Information

System Data Health
Measure Timestamp Ago Health
Web Server Live 18:03:15, 12th February 2016 0 s health
Last live-data upload from local system (nw3) 18:03:13, 12th February 2016 2 s health
Last upload of secondary data 18:00:22, 12th February 2016 3 mins health
Latest Webcam upload 18:03:09, 12th February 2016 6 s health
Last upload of 24hr data log 17:59:08, 12th February 2016 4 mins health
Last full data process 18:00:03, 12th February 2016 3 mins health
Last data downtime (>15 mins) 08:31:03, 29th December 2015 45 days
Local System and Site Information
Measure Value
WD Version & Build # 10.37R - 40
WD Start Time 12:10 11/02/16
WD Data Count 37423
WD Memory Use 69,864 K
--- ---
Windows Uptime 1 Days 5 Hours 50 Minutes 47 Seconds
Free System Memory 2664 MB (Max: 4GB)
--- ---
Station Altitude 57 m (187 ft)
Station Latitude 51.556
Station Longitude -0.154
Machine Room Conditions
Measure Value
Temperature 15.2 °C
Temperature Trend +0.8 °C /hr
Relative Humidity 38%
Dew Point 1.0 °C
--- ---
Tmin Today 14.2 °C at 17:25
Tmax Today 18.4 °C at 00:00
Hmin Today 36% at 00:00
Hmax Today 39% at 04:55
Tmin Yesterday 6.0 °C at 04:05
Tmax Yesterday 19.5 °C at 22:22

Site owner and administrator: Ben Lee-Rodgers (2010 - present)

Last 10hrs Temp/Hum for Secondary Sensor and Indoors

Extra Sensors/Indoor

Other

Raw METAR from EGLL (Heathrow)

EGLL 121750Z AUTO 07005KT 9999 BKN019 05/02 Q0995
Decode Instructions
Source

WD Screenshot

not available